Time;durP1;ratioP1;P1;durP2;ratioP2;P2;SDS_P1;SDS_P2;PMS_P1;PMS_P2;Temp;Humidity;BMP_temperature;BMP_pressure;BME280_temperature;BME280_humidity;BME280_pressure;Samples;Min_cycle;Max_cycle;Signal;HPM_P1;HPM_P2
2021/01/02 00:01:18;;;;;;;28.27;13.45;;;2.30;99.90;;;;;;5030692;28;20049;-81
2021/01/02 00:04:08;;;;;;;26.83;12.25;;;2.30;99.90;;;;;;5050610;28;20124;-81
2021/01/02 00:06:46;;;;;;;27.30;12.38;;;2.30;99.90;;;;;;5033878;28;20057;-82
2021/01/02 00:09:16;;;;;;;28.73;12.68;;;2.20;99.90;;;;;;5038512;28;20038;-81
2021/01/02 00:12:03;;;;;;;29.40;13.75;;;2.30;99.90;;;;;;5036791;28;20029;-81
2021/01/02 00:14:44;;;;;;;24.25;12.45;;;2.30;99.90;;;;;;5038000;28;20037;-82
2021/01/02 00:17:45;;;;;;;31.83;13.95;;;2.40;99.90;;;;;;5053143;28;20504;-81
2021/01/02 00:20:24;;;;;;;30.02;13.35;;;2.30;99.90;;;;;;4993148;28;20052;-82
2021/01/02 00:22:54;;;;;;;23.00;11.88;;;2.40;99.90;;;;;;5037118;28;20038;-80
2021/01/02 00:25:27;;;;;;;28.45;13.85;;;2.40;99.90;;;;;;5036939;28;20044;-80
2021/01/02 00:28:23;;;;;;;27.70;12.07;;;2.40;99.90;;;;;;5024602;28;20548;-81
2021/01/02 00:31:00;;;;;;;27.48;12.15;;;2.30;99.90;;;;;;5022625;28;20652;-81
2021/01/02 00:34:07;;;;;;;27.08;12.10;;;2.40;99.90;;;;;;5035923;28;20049;-82
2021/01/02 00:36:37;;;;;;;27.27;11.88;;;2.30;99.90;;;;;;5035291;28;20055;-81
2021/01/02 00:39:03;;;;;;;24.65;12.13;;;2.30;99.90;;;;;;5037513;28;20045;-81
2021/01/02 00:41:33;;;;;;;22.98;11.63;;;2.30;99.90;;;;;;5052120;28;20499;-80
2021/01/02 00:44:01;;;;;;;26.25;12.25;;;2.40;99.90;;;;;;5039032;28;20603;-81
2021/01/02 00:46:27;;;;;;;26.13;12.63;;;2.30;99.90;;;;;;5034889;28;20029;-80
2021/01/02 00:48:53;;;;;;;24.42;12.23;;;2.30;99.90;;;;;;5036579;28;20033;-80
2021/01/02 00:51:19;;;;;;;33.40;11.85;;;2.30;99.90;;;;;;5035332;28;20049;-82
2021/01/02 00:53:57;;;;;;;22.10;11.68;;;2.30;99.90;;;;;;5026418;28;20042;-80
2021/01/02 00:56:48;;;;;;;23.00;11.85;;;2.40;99.90;;;;;;5029111;28;20041;-80
2021/01/02 00:59:28;;;;;;;23.25;11.10;;;2.40;99.90;;;;;;5031387;28;20703;-81
2021/01/02 01:02:00;;;;;;;26.25;11.73;;;2.40;99.90;;;;;;5020316;28;20468;-82
2021/01/02 01:04:41;;;;;;;24.02;11.82;;;2.40;99.90;;;;;;5011858;28;20060;-83
2021/01/02 01:07:08;;;;;;;25.75;11.63;;;2.40;99.90;;;;;;5016266;28;20029;-83
2021/01/02 01:09:41;;;;;;;25.55;12.02;;;2.40;99.90;;;;;;5017898;28;20514;-83
2021/01/02 01:12:08;;;;;;;21.48;11.52;;;2.50;99.90;;;;;;5011675;28;20041;-83
2021/01/02 01:14:35;;;;;;;26.20;12.30;;;2.40;99.90;;;;;;5017548;28;20033;-82
2021/01/02 01:17:02;;;;;;;26.08;11.85;;;2.50;99.90;;;;;;5016844;28;20041;-82
2021/01/02 01:19:29;;;;;;;21.95;11.35;;;2.50;99.90;;;;;;5019726;28;20102;-81
2021/01/02 01:21:58;;;;;;;21.00;11.00;;;2.50;99.90;;;;;;5014768;28;20041;-82
2021/01/02 01:24:41;;;;;;;23.58;11.02;;;2.60;99.90;;;;;;5032362;28;20063;-80
2021/01/02 01:27:19;;;;;;;28.48;13.00;;;2.60;99.90;;;;;;5018197;28;20498;-82
2021/01/02 01:29:47;;;;;;;30.63;13.32;;;2.60;99.90;;;;;;5017578;28;20132;-82
2021/01/02 01:32:16;;;;;;;29.42;14.70;;;2.60;99.90;;;;;;5011653;28;20048;-81
2021/01/02 01:34:45;;;;;;;31.27;13.65;;;2.60;99.90;;;;;;5016319;28;20121;-81
2021/01/02 01:37:15;;;;;;;34.72;14.73;;;2.60;99.90;;;;;;5020907;28;20038;-82
2021/01/02 01:39:51;;;;;;;30.73;14.55;;;2.60;99.90;;;;;;5016909;28;20045;-83
2021/01/02 01:42:19;;;;;;;30.98;14.02;;;2.60;99.90;;;;;;5019449;28;20038;-82
2021/01/02 01:45:06;;;;;;;32.50;14.20;;;2.60;99.90;;;;;;5016481;28;20034;-82
2021/01/02 01:47:37;;;;;;;33.92;14.98;;;2.60;99.90;;;;;;5008445;28;20111;-80
2021/01/02 01:50:25;;;;;;;30.58;15.05;;;2.60;99.90;;;;;;5006593;28;20125;-80
2021/01/02 01:52:51;;;;;;;30.88;13.65;;;2.50;99.90;;;;;;5006037;28;20061;-80
2021/01/02 01:55:34;;;;;;;33.97;15.13;;;2.60;99.90;;;;;;5007153;28;20359;-80
2021/01/02 01:58:16;;;;;;;33.30;14.40;;;2.50;99.90;;;;;;5006783;28;20041;-80
2021/01/02 02:00:46;;;;;;;29.02;13.95;;;2.50;99.90;;;;;;5006560;28;20477;-79
2021/01/02 02:03:36;;;;;;;36.03;14.95;;;2.50;99.90;;;;;;4997725;28;20080;-80
2021/01/02 02:06:12;;;;;;;33.97;14.65;;;2.50;99.90;;;;;;4997277;28;20038;-80
2021/01/02 02:08:50;;;;;;;26.55;12.85;;;2.40;99.90;;;;;;5003890;28;20046;-80
2021/01/02 02:11:31;;;;;;;28.73;13.07;;;2.40;99.90;;;;;;5005778;28;20049;-80
2021/01/02 02:14:11;;;;;;;31.33;14.32;;;2.40;99.90;;;;;;5009356;28;20048;-81
2021/01/02 02:17:01;;;;;;;30.63;13.85;;;2.40;99.90;;;;;;5036461;28;20057;-80
2021/01/02 02:19:51;;;;;;;31.17;14.25;;;2.40;99.90;;;;;;5028557;28;20056;-80
2021/01/02 02:22:17;;;;;;;27.85;13.95;;;2.40;99.90;;;;;;5025519;28;20033;-81
2021/01/02 02:24:44;;;;;;;27.40;14.25;;;2.30;99.90;;;;;;5027001;28;20589;-80
2021/01/02 02:27:14;;;;;;;31.50;14.63;;;2.30;99.90;;;;;;5026595;28;20047;-80
2021/01/02 02:29:57;;;;;;;32.67;15.05;;;2.30;99.90;;;;;;5024387;28;20528;-80
2021/01/02 02:32:26;;;;;;;30.17;13.70;;;2.30;99.90;;;;;;5021840;28;20322;-81
2021/01/02 02:34:53;;;;;;;30.77;14.02;;;2.40;99.90;;;;;;5019618;28;20049;-80
2021/01/02 02:37:19;;;;;;;31.40;14.57;;;2.40;99.90;;;;;;5017315;28;20084;-81
2021/01/02 02:39:45;;;;;;;29.35;14.05;;;2.50;99.90;;;;;;5023526;28;20260;-80
2021/01/02 02:42:13;;;;;;;35.15;14.05;;;2.50;99.90;;;;;;5020110;28;20026;-79
2021/01/02 02:44:45;;;;;;;31.30;14.65;;;2.50;99.90;;;;;;5022965;28;20041;-79
2021/01/02 02:47:17;;;;;;;35.78;14.10;;;2.50;99.90;;;;;;5023882;28;20037;-80
2021/01/02 02:49:47;;;;;;;29.58;13.98;;;2.50;99.90;;;;;;5024578;28;20037;-80
2021/01/02 02:52:47;;;;;;;30.23;14.00;;;2.50;99.90;;;;;;5024843;28;20033;-80
2021/01/02 02:55:13;;;;;;;29.58;13.98;;;2.50;99.90;;;;;;4986226;28;20029;-81
2021/01/02 02:57:48;;;;;;;29.92;14.65;;;2.50;99.90;;;;;;5027557;28;20485;-81
2021/01/02 03:00:16;;;;;;;28.83;13.98;;;2.60;99.90;;;;;;5029330;28;20025;-80
2021/01/02 03:02:45;;;;;;;26.83;13.73;;;2.60;99.90;;;;;;5027772;28;21786;-80
2021/01/02 03:05:13;;;;;;;32.58;15.45;;;2.50;99.90;;;;;;5024909;28;20099;-80
2021/01/02 03:07:44;;;;;;;34.03;15.98;;;2.50;99.90;;;;;;5027188;28;20044;-79
2021/01/02 03:10:10;;;;;;;31.15;15.07;;;2.60;99.90;;;;;;5026355;28;20204;-79
2021/01/02 03:12:46;;;;;;;29.15;13.52;;;2.50;99.90;;;;;;5024110;28;20534;-79
2021/01/02 03:15:14;;;;;;;33.70;15.38;;;2.50;99.90;;;;;;5028805;28;20064;-81
2021/01/02 03:17:41;;;;;;;32.13;13.73;;;2.50;99.90;;;;;;5027662;28;20415;-80
2021/01/02 03:20:07;;;;;;;31.17;14.60;;;2.50;99.90;;;;;;5031354;28;20545;-81
2021/01/02 03:22:33;;;;;;;29.52;14.10;;;2.50;99.90;;;;;;5045950;28;20029;-80
2021/01/02 03:24:58;;;;;;;35.10;15.65;;;2.50;99.90;;;;;;5046906;28;20560;-81
2021/01/02 03:27:24;;;;;;;31.52;14.65;;;2.40;99.90;;;;;;5033799;28;20124;-80
2021/01/02 03:29:49;;;;;;;31.63;14.52;;;2.40;99.90;;;;;;5038487;28;20264;-81
2021/01/02 03:32:15;;;;;;;29.15;14.40;;;2.40;99.90;;;;;;5028759;28;20124;-81
2021/01/02 03:34:41;;;;;;;30.92;14.88;;;2.40;99.90;;;;;;5028586;28;20041;-80
2021/01/02 03:37:08;;;;;;;31.85;15.52;;;2.40;99.90;;;;;;5027944;28;20107;-80
2021/01/02 03:39:33;;;;;;;28.63;13.90;;;2.40;99.90;;;;;;5029818;28;20094;-80
2021/01/02 03:41:59;;;;;;;34.95;15.15;;;2.40;99.90;;;;;;5027001;28;20042;-81
2021/01/02 03:44:25;;;;;;;30.65;15.07;;;2.40;99.90;;;;;;5026327;28;20038;-81
2021/01/02 03:46:50;;;;;;;32.28;14.43;;;2.40;99.90;;;;;;5030026;28;20033;-80
2021/01/02 03:49:16;;;;;;;30.17;14.25;;;2.40;99.90;;;;;;5025526;28;20040;-79
2021/01/02 03:51:41;;;;;;;37.88;15.45;;;2.40;99.90;;;;;;5006909;28;20041;-80
2021/01/02 03:54:07;;;;;;;28.27;13.93;;;2.40;99.90;;;;;;5008025;28;20065;-80
2021/01/02 03:56:33;;;;;;;30.95;14.07;;;2.40;99.90;;;;;;5003220;28;20041;-80
2021/01/02 03:58:58;;;;;;;31.90;15.13;;;2.40;99.90;;;;;;4999412;28;20192;-80
2021/01/02 04:01:24;;;;;;;32.10;14.77;;;2.30;99.90;;;;;;5011061;28;20144;-81
2021/01/02 04:03:49;;;;;;;31.25;14.00;;;2.30;99.90;;;;;;5013495;28;20030;-82
2021/01/02 04:06:23;;;;;;;31.80;14.52;;;2.30;99.90;;;;;;5018094;28;20589;-81
2021/01/02 04:08:49;;;;;;;30.95;15.10;;;2.30;99.90;;;;;;5024263;28;20083;-81
2021/01/02 04:11:15;;;;;;;33.63;15.20;;;2.30;99.90;;;;;;5037057;28;20050;-80
2021/01/02 04:13:40;;;;;;;30.52;14.13;;;2.20;99.90;;;;;;5036570;28;20064;-80
2021/01/02 04:16:06;;;;;;;30.48;14.32;;;2.20;99.90;;;;;;5037681;28;20056;-81
2021/01/02 04:18:31;;;;;;;29.02;13.63;;;2.20;99.90;;;;;;5033978;28;20836;-81
2021/01/02 04:20:57;;;;;;;33.10;14.35;;;2.20;99.90;;;;;;5039257;28;20171;-81
2021/01/02 04:23:22;;;;;;;29.33;14.05;;;2.20;99.90;;;;;;5036023;28;20033;-81
2021/01/02 04:25:48;;;;;;;28.80;13.93;;;2.20;99.90;;;;;;5035109;28;20631;-81
2021/01/02 04:28:14;;;;;;;29.27;14.45;;;2.20;99.90;;;;;;5045057;28;21912;-81
2021/01/02 04:30:39;;;;;;;27.77;13.15;;;2.10;99.90;;;;;;5039565;28;20596;-81
2021/01/02 04:33:05;;;;;;;30.98;14.20;;;2.10;99.90;;;;;;5036837;28;20120;-81
2021/01/02 04:35:31;;;;;;;25.98;13.63;;;2.10;99.90;;;;;;5037171;28;20051;-81
2021/01/02 04:37:56;;;;;;;29.20;13.45;;;2.10;99.90;;;;;;5044998;28;20049;-80
2021/01/02 04:40:22;;;;;;;26.50;13.60;;;2.10;99.90;;;;;;5038513;28;20542;-80
2021/01/02 04:42:49;;;;;;;28.17;13.20;;;2.10;99.90;;;;;;5029962;28;20068;-82
2021/01/02 04:45:15;;;;;;;27.83;13.45;;;2.00;99.90;;;;;;5041253;28;20072;-83
2021/01/02 04:47:44;;;;;;;30.08;13.93;;;2.00;99.90;;;;;;5042154;28;20037;-81
2021/01/02 04:50:09;;;;;;;28.75;13.10;;;1.90;99.90;;;;;;5038581;28;20113;-81
2021/01/02 04:52:36;;;;;;;29.58;13.18;;;1.90;99.90;;;;;;5028978;28;20087;-82
2021/01/02 04:55:06;;;;;;;31.63;15.18;;;1.80;99.90;;;;;;5039292;28;20056;-82
2021/01/02 04:57:37;;;;;;;30.67;14.73;;;1.80;99.90;;;;;;5035890;28;20095;-82
2021/01/02 05:00:12;;;;;;;29.15;14.23;;;1.70;99.90;;;;;;5035001;28;20179;-82
2021/01/02 05:02:40;;;;;;;37.15;15.57;;;1.70;99.90;;;;;;5032432;28;20097;-82
2021/01/02 05:05:07;;;;;;;29.27;14.00;;;1.70;99.90;;;;;;5042669;28;20056;-83
2021/01/02 05:07:34;;;;;;;35.47;14.60;;;1.70;99.90;;;;;;5038943;28;20045;-81
2021/01/02 05:09:59;;;;;;;35.40;16.30;;;1.70;99.90;;;;;;5038783;28;20053;-82
2021/01/02 05:12:30;;;;;;;35.38;15.57;;;1.70;99.90;;;;;;5031621;28;20376;-83
2021/01/02 05:15:03;;;;;;;35.28;14.90;;;1.80;99.90;;;;;;5039129;28;20041;-83
2021/01/02 05:17:29;;;;;;;31.30;13.90;;;1.80;99.90;;;;;;5037091;28;20048;-80
2021/01/02 05:20:04;;;;;;;34.80;15.38;;;1.80;99.90;;;;;;5037303;28;20475;-82
2021/01/02 05:22:30;;;;;;;42.90;16.10;;;1.80;99.90;;;;;;5033211;28;20041;-81
2021/01/02 05:25:16;;;;;;;29.95;14.45;;;1.70;99.90;;;;;;5037433;28;20040;-82
2021/01/02 05:27:47;;;;;;;38.67;16.02;;;1.70;99.90;;;;;;5036480;28;20052;-82
2021/01/02 05:30:38;;;;;;;32.35;15.23;;;1.70;99.90;;;;;;5035169;28;20045;-82
2021/01/02 05:33:07;;;;;;;34.72;16.02;;;1.60;99.90;;;;;;5034468;28;20071;-81
2021/01/02 05:35:41;;;;;;;37.83;16.35;;;1.70;99.90;;;;;;5035134;28;20046;-82
2021/01/02 05:38:14;;;;;;;42.08;17.17;;;1.60;99.90;;;;;;5037062;28;20041;-81
2021/01/02 05:40:46;;;;;;;39.00;17.30;;;1.60;99.90;;;;;;5036515;28;20041;-82
2021/01/02 05:43:14;;;;;;;40.90;17.42;;;1.60;99.90;;;;;;5032515;28;20048;-81
2021/01/02 05:45:40;;;;;;;39.00;17.30;;;1.60;99.90;;;;;;5035209;28;20060;-80
2021/01/02 05:48:14;;;;;;;38.45;16.77;;;1.60;99.90;;;;;;5036267;28;20045;-81
2021/01/02 05:50:47;;;;;;;38.38;16.58;;;1.60;99.90;;;;;;5036447;28;20050;-80
2021/01/02 05:53:23;;;;;;;36.27;17.17;;;1.60;99.90;;;;;;5032195;28;20069;-79
2021/01/02 05:56:12;;;;;;;35.53;16.17;;;1.60;99.90;;;;;;5020933;28;20049;-81
2021/01/02 05:58:42;;;;;;;50.47;18.17;;;1.60;99.90;;;;;;4996630;28;20038;-79
2021/01/02 06:01:12;;;;;;;44.50;18.88;;;1.70;99.90;;;;;;5004276;28;20042;-78
2021/01/02 06:03:43;;;;;;;45.22;18.00;;;1.60;99.90;;;;;;5005159;28;20037;-80
2021/01/02 06:06:14;;;;;;;44.80;18.85;;;1.60;99.90;;;;;;5006761;28;20103;-81
2021/01/02 06:08:43;;;;;;;52.20;19.67;;;1.70;99.90;;;;;;5020025;28;20037;-80
2021/01/02 06:11:12;;;;;;;44.72;17.63;;;1.60;99.90;;;;;;5003061;28;20376;-80
2021/01/02 06:13:44;;;;;;;46.60;19.05;;;1.70;99.90;;;;;;4999364;28;20064;-79
2021/01/02 06:16:10;;;;;;;56.28;20.45;;;1.70;99.90;;;;;;5000889;28;20037;-80
2021/01/02 06:18:39;;;;;;;50.10;18.85;;;1.70;99.90;;;;;;5004417;28;20040;-81
2021/01/02 06:21:17;;;;;;;48.50;18.55;;;1.60;99.90;;;;;;5013339;28;20045;-82
2021/01/02 06:23:44;;;;;;;44.80;19.17;;;1.60;99.90;;;;;;5013035;28;20136;-82
2021/01/02 06:26:11;;;;;;;52.28;19.70;;;1.60;99.90;;;;;;5013446;28;20038;-81
2021/01/02 06:28:39;;;;;;;61.10;21.00;;;1.60;99.90;;;;;;5031159;28;20026;-80
2021/01/02 06:31:10;;;;;;;57.85;20.70;;;1.70;99.90;;;;;;5010003;28;20045;-80
2021/01/02 06:33:36;;;;;;;60.90;21.38;;;1.70;99.90;;;;;;5012159;28;20067;-80
2021/01/02 06:36:03;;;;;;;62.60;21.17;;;1.60;99.90;;;;;;5014903;28;21726;-81
2021/01/02 06:38:29;;;;;;;56.55;20.65;;;1.70;99.90;;;;;;5011479;28;20041;-82
2021/01/02 06:40:56;;;;;;;55.95;20.92;;;1.70;99.90;;;;;;5015380;28;20034;-82
2021/01/02 06:43:24;;;;;;;62.75;19.40;;;1.70;99.90;;;;;;5027821;28;20034;-82
2021/01/02 06:45:56;;;;;;;57.50;21.42;;;1.70;99.90;;;;;;5011850;28;20073;-82
2021/01/02 06:48:27;;;;;;;57.47;19.05;;;1.70;99.90;;;;;;5013776;28;20038;-82
2021/01/02 06:50:57;;;;;;;51.38;19.45;;;1.70;99.90;;;;;;5013978;28;20056;-82
2021/01/02 06:53:30;;;;;;;53.40;19.40;;;1.70;99.90;;;;;;5012632;28;20046;-83
2021/01/02 06:55:57;;;;;;;56.58;18.85;;;1.70;99.90;;;;;;5029013;28;20033;-84
2021/01/02 06:58:23;;;;;;;61.95;20.85;;;1.70;99.90;;;;;;5033028;28;20257;-84
2021/01/02 07:00:49;;;;;;;59.08;21.17;;;1.70;99.90;;;;;;5020468;28;20131;-84
2021/01/02 07:03:39;;;;;;;57.83;18.80;;;1.80;99.90;;;;;;5022986;28;20046;-83
2021/01/02 07:09:02;;;;;;;49.40;18.70;;;1.60;99.90;;;;;;5028602;28;20124;-81
2021/01/02 07:11:37;;;;;;;45.75;17.98;;;1.70;99.90;;;;;;5029461;28;20041;-81
2021/01/02 07:14:11;;;;;;;48.10;18.48;;;1.70;99.90;;;;;;5033353;28;20547;-81
2021/01/02 07:16:55;;;;;;;53.25;19.90;;;1.70;99.90;;;;;;5007637;28;20084;-80
2021/01/02 07:19:23;;;;;;;57.85;19.92;;;1.70;99.90;;;;;;5012508;28;20805;-81
2021/01/02 07:21:59;;;;;;;61.15;22.15;;;1.70;99.90;;;;;;5009162;28;20042;-80
2021/01/02 07:24:44;;;;;;;67.93;22.02;;;1.80;99.90;;;;;;5009655;28;20050;-80
2021/01/02 07:27:15;;;;;;;62.15;21.13;;;1.70;99.90;;;;;;5008982;28;20260;-80
2021/01/02 07:29:44;;;;;;;59.30;19.05;;;1.70;99.90;;;;;;5017864;28;20045;-82
2021/01/02 07:32:11;;;;;;;60.63;21.38;;;1.80;99.90;;;;;;5016337;28;20065;-81
2021/01/02 07:34:38;;;;;;;60.40;20.40;;;1.80;99.90;;;;;;5012598;28;20093;-81
2021/01/02 07:37:09;;;;;;;58.20;19.70;;;1.80;99.90;;;;;;5011647;28;20232;-80
2021/01/02 07:39:35;;;;;;;59.15;20.90;;;1.80;99.90;;;;;;5010980;28;20144;-82
2021/01/02 07:42:06;;;;;;;62.15;20.38;;;1.80;99.90;;;;;;5010505;28;20077;-82
2021/01/02 07:44:33;;;;;;;66.60;20.40;;;1.80;99.90;;;;;;5011193;28;20049;-81
2021/01/02 07:46:58;;;;;;;59.60;20.10;;;1.80;99.90;;;;;;5009945;28;20038;-81
2021/01/02 07:49:24;;;;;;;60.50;21.88;;;1.80;99.90;;;;;;5006369;28;20045;-81
2021/01/02 07:51:50;;;;;;;64.85;20.90;;;1.80;99.90;;;;;;5012657;28;20042;-79
2021/01/02 07:54:37;;;;;;;62.03;21.88;;;1.80;99.90;;;;;;5000804;28;20447;-80
2021/01/02 07:57:07;;;;;;;60.95;21.40;;;1.70;99.90;;;;;;5009636;28;20038;-80
2021/01/02 07:59:39;;;;;;;70.70;21.80;;;1.80;99.90;;;;;;5009224;28;20030;-80
2021/01/02 08:02:07;;;;;;;64.28;20.30;;;1.80;99.90;;;;;;5001482;28;20612;-81
2021/01/02 08:04:34;;;;;;;77.65;23.23;;;1.90;99.90;;;;;;5005520;28;20125;-80
2021/01/02 08:07:02;;;;;;;64.82;22.23;;;1.80;99.90;;;;;;4999987;28;20040;-79
2021/01/02 08:09:29;;;;;;;65.43;23.08;;;1.80;99.90;;;;;;4999154;28;20123;-79
2021/01/02 08:12:08;;;;;;;63.55;20.77;;;1.80;99.90;;;;;;5006730;28;20033;-79
2021/01/02 08:14:37;;;;;;;63.83;22.20;;;1.80;99.90;;;;;;5006043;28;20034;-79
2021/01/02 08:17:08;;;;;;;56.35;19.88;;;1.90;99.90;;;;;;5014293;28;20053;-81
2021/01/02 08:19:45;;;;;;;63.42;21.08;;;1.80;99.90;;;;;;5016380;28;20038;-82
2021/01/02 08:22:12;;;;;;;61.13;20.60;;;1.80;99.90;;;;;;5010107;28;20037;-80
2021/01/02 08:24:38;;;;;;;56.42;19.75;;;1.80;99.90;;;;;;5010423;28;20058;-80
2021/01/02 08:27:04;;;;;;;57.80;20.73;;;1.90;99.90;;;;;;5024095;28;20060;-80
2021/01/02 08:29:32;;;;;;;61.05;21.80;;;1.90;99.90;;;;;;5024070;28;20065;-79
2021/01/02 08:32:20;;;;;;;58.42;20.88;;;1.90;99.90;;;;;;5021064;28;20510;-79
2021/01/02 08:34:46;;;;;;;58.22;22.00;;;1.90;99.90;;;;;;5010385;28;20042;-81
2021/01/02 08:37:14;;;;;;;60.33;21.67;;;2.00;99.90;;;;;;5017224;28;20048;-81
2021/01/02 08:39:41;;;;;;;65.82;22.35;;;1.90;99.90;;;;;;5008122;28;20061;-81
2021/01/02 08:42:07;;;;;;;59.15;21.17;;;1.90;99.90;;;;;;5004372;28;20107;-82
2021/01/02 08:44:35;;;;;;;56.83;20.17;;;1.90;99.90;;;;;;5004197;28;20046;-80
2021/01/02 08:47:03;;;;;;;58.45;19.92;;;1.90;99.90;;;;;;5008593;28;20824;-81
2021/01/02 08:49:44;;;;;;;70.03;22.27;;;2.10;99.90;;;;;;5016057;28;20094;-80
2021/01/02 08:52:34;;;;;;;60.25;21.88;;;2.00;99.90;;;;;;5009837;28;20348;-79
2021/01/02 08:55:07;;;;;;;56.28;23.02;;;2.00;99.90;;;;;;5012696;28;20121;-79
2021/01/02 08:57:45;;;;;;;66.17;24.10;;;2.00;99.90;;;;;;5027217;28;20034;-81
2021/01/02 09:00:24;;;;;;;63.20;23.20;;;2.00;99.90;;;;;;5034390;28;21430;-84
2021/01/02 09:02:59;;;;;;;61.28;21.80;;;2.10;99.90;;;;;;5030184;28;20348;-80
2021/01/02 09:05:39;;;;;;;50.60;19.90;;;2.10;99.90;;;;;;5032051;28;20037;-83
2021/01/02 09:08:06;;;;;;;56.28;21.50;;;2.00;99.90;;;;;;5028434;28;20033;-80
2021/01/02 09:10:45;;;;;;;55.90;20.13;;;2.00;99.90;;;;;;5028557;28;20081;-82
2021/01/02 09:13:12;;;;;;;55.88;21.42;;;2.00;99.90;;;;;;5024374;28;20033;-83
2021/01/02 09:16:05;;;;;;;58.08;21.33;;;2.10;99.90;;;;;;5030570;28;20037;-80
2021/01/02 09:18:31;;;;;;;55.42;19.95;;;2.10;99.90;;;;;;5027648;28;20041;-80
2021/01/02 09:21:15;;;;;;;48.67;20.25;;;2.20;99.90;;;;;;5028805;28;20052;-82
2021/01/02 09:23:42;;;;;;;46.85;18.55;;;2.20;99.90;;;;;;5029684;28;20049;-81
2021/01/02 09:26:22;;;;;;;48.60;19.85;;;2.20;99.90;;;;;;5030158;28;20049;-80
2021/01/02 09:28:49;;;;;;;53.45;20.77;;;2.30;99.90;;;;;;5027132;28;20042;-80
2021/01/02 09:31:15;;;;;;;51.30;19.75;;;2.10;99.90;;;;;;5019077;28;20091;-79
2021/01/02 09:33:40;;;;;;;55.83;20.45;;;2.10;99.90;;;;;;5021280;28;20607;-79
2021/01/02 09:36:06;;;;;;;53.42;20.48;;;2.20;99.90;;;;;;5027817;28;20037;-82
2021/01/02 09:38:32;;;;;;;53.78;19.20;;;2.30;99.90;;;;;;5026238;28;20091;-81
2021/01/02 09:40:58;;;;;;;45.38;19.35;;;2.20;99.90;;;;;;5019894;28;20091;-81
2021/01/02 09:43:24;;;;;;;52.28;19.23;;;2.20;99.90;;;;;;5023617;28;20506;-78
2021/01/02 09:45:50;;;;;;;49.03;20.45;;;2.30;99.90;;;;;;5017403;28;20033;-78
2021/01/02 09:48:17;;;;;;;52.58;21.65;;;2.30;99.90;;;;;;5016747;28;20522;-77
2021/01/02 09:50:43;;;;;;;52.85;20.75;;;2.20;99.90;;;;;;5021180;28;20038;-77
2021/01/02 09:53:10;;;;;;;55.50;20.85;;;2.30;99.90;;;;;;5018256;28;20119;-79
2021/01/02 09:55:36;;;;;;;46.33;18.90;;;2.30;99.90;;;;;;5015475;28;20072;-78
2021/01/02 09:58:01;;;;;;;48.45;19.02;;;2.30;99.90;;;;;;5016317;28;20498;-80
2021/01/02 10:00:27;;;;;;;42.95;18.15;;;2.40;99.90;;;;;;5027442;28;20025;-79
2021/01/02 10:02:54;;;;;;;51.25;20.05;;;2.40;99.90;;;;;;5029187;28;20033;-77
2021/01/02 10:05:22;;;;;;;41.40;17.83;;;2.40;99.90;;;;;;5053200;28;20041;-79
2021/01/02 10:07:47;;;;;;;50.80;19.38;;;2.50;99.90;;;;;;5023301;28;20038;-79
2021/01/02 10:10:15;;;;;;;41.33;17.63;;;2.50;99.90;;;;;;5030350;28;21388;-80
2021/01/02 10:12:43;;;;;;;44.35;18.30;;;2.50;99.90;;;;;;5027775;28;20287;-81
2021/01/02 10:15:10;;;;;;;42.40;17.05;;;2.50;99.90;;;;;;5019985;28;20041;-78
2021/01/02 10:17:35;;;;;;;45.03;18.50;;;2.70;99.90;;;;;;5018562;28;20106;-80
2021/01/02 10:20:02;;;;;;;37.35;16.77;;;2.60;99.90;;;;;;5020484;28;20566;-80
2021/01/02 10:22:28;;;;;;;39.95;17.33;;;2.70;99.90;;;;;;5035704;28;20041;-83
2021/01/02 10:24:53;;;;;;;39.28;16.83;;;2.80;99.90;;;;;;5033335;28;20041;-80
2021/01/02 10:27:21;;;;;;;37.80;16.77;;;2.80;99.90;;;;;;5021637;28;20042;-79
2021/01/02 10:29:49;;;;;;;38.90;16.20;;;2.80;99.90;;;;;;5033682;28;20426;-78
2021/01/02 10:32:16;;;;;;;35.22;15.48;;;2.90;99.90;;;;;;5021820;28;20044;-80
2021/01/02 10:34:42;;;;;;;37.80;15.93;;;2.90;99.90;;;;;;5015445;28;20385;-78
2021/01/02 10:37:09;;;;;;;40.92;16.45;;;3.00;99.90;;;;;;5014958;28;20037;-78
2021/01/02 10:39:41;;;;;;;33.28;15.45;;;2.90;99.90;;;;;;5009946;28;20434;-79
2021/01/02 10:42:07;;;;;;;37.22;14.98;;;2.90;99.90;;;;;;5030635;28;20034;-78
2021/01/02 10:44:33;;;;;;;42.00;16.35;;;2.90;99.90;;;;;;5013141;28;20624;-77
2021/01/02 10:46:59;;;;;;;36.47;15.65;;;3.00;99.90;;;;;;5017290;28;20088;-77
2021/01/02 10:49:26;;;;;;;31.85;15.15;;;3.10;99.90;;;;;;5011763;28;20114;-77
2021/01/02 10:51:52;;;;;;;36.90;16.13;;;3.10;99.90;;;;;;5022844;28;20518;-78
2021/01/02 10:54:19;;;;;;;37.55;15.25;;;3.10;99.90;;;;;;5018737;28;20042;-79
2021/01/02 10:56:52;;;;;;;32.85;14.88;;;3.10;99.90;;;;;;5017117;28;20073;-80
2021/01/02 10:59:21;;;;;;;31.42;14.45;;;3.10;99.90;;;;;;5013097;28;20040;-78
2021/01/02 11:01:50;;;;;;;28.75;13.85;;;3.10;99.90;;;;;;5019074;28;20036;-79
2021/01/02 11:04:18;;;;;;;37.55;15.57;;;3.30;99.90;;;;;;5015799;28;20045;-78
2021/01/02 11:06:45;;;;;;;39.17;15.68;;;3.40;99.90;;;;;;5020157;28;20446;-79
2021/01/02 11:09:13;;;;;;;33.35;15.43;;;3.40;99.90;;;;;;5016619;28;20042;-77
2021/01/02 11:11:39;;;;;;;27.55;13.57;;;3.50;99.90;;;;;;5016071;28;20176;-78
2021/01/02 11:14:05;;;;;;;29.98;14.32;;;3.40;99.90;;;;;;5022341;28;20049;-77
2021/01/02 11:16:32;;;;;;;31.67;14.45;;;3.60;99.90;;;;;;5003097;28;20128;-79
2021/01/02 11:18:58;;;;;;;36.30;15.38;;;3.60;99.90;;;;;;5010785;28;20675;-76
2021/01/02 11:21:23;;;;;;;33.80;15.10;;;3.60;99.90;;;;;;5000753;28;20060;-77
2021/01/02 11:23:49;;;;;;;28.35;14.60;;;3.70;99.90;;;;;;5010930;28;20038;-81
2021/01/02 11:26:15;;;;;;;36.28;14.73;;;4.00;99.90;;;;;;5025141;28;20045;-80
2021/01/02 11:28:41;;;;;;;29.67;14.23;;;3.80;99.90;;;;;;5022185;28;20038;-80
2021/01/02 11:31:07;;;;;;;29.40;13.75;;;3.60;99.90;;;;;;5027199;28;20052;-78
2021/01/02 11:33:33;;;;;;;34.38;15.40;;;3.60;99.90;;;;;;5026720;28;20041;-78
2021/01/02 11:35:58;;;;;;;31.48;14.43;;;3.40;99.90;;;;;;5023383;28;20045;-77
2021/01/02 11:38:24;;;;;;;35.17;15.43;;;3.40;99.90;;;;;;5025043;28;20040;-77
2021/01/02 11:40:50;;;;;;;38.17;16.20;;;3.50;99.90;;;;;;5026015;28;20085;-77
2021/01/02 11:43:16;;;;;;;33.22;14.93;;;3.20;99.90;;;;;;5023651;28;20037;-76
2021/01/02 11:45:41;;;;;;;33.38;14.93;;;3.30;99.90;;;;;;5025256;28;20137;-77
2021/01/02 11:48:07;;;;;;;33.75;15.00;;;3.30;99.90;;;;;;5022610;28;20052;-77
2021/01/02 11:50:33;;;;;;;34.35;15.68;;;3.10;99.90;;;;;;5025986;28;20033;-77
2021/01/02 11:52:58;;;;;;;34.25;15.70;;;3.10;99.90;;;;;;5023425;28;20494;-77
2021/01/02 11:55:24;;;;;;;36.72;16.63;;;3.00;99.90;;;;;;5023700;28;20038;-78
2021/01/02 11:57:49;;;;;;;34.33;16.58;;;2.90;99.90;;;;;;5021357;28;20053;-77
2021/01/02 12:00:15;;;;;;;35.85;16.02;;;3.00;99.90;;;;;;5022258;28;20068;-78
2021/01/02 12:02:41;;;;;;;36.25;16.08;;;2.90;99.90;;;;;;5023315;28;20611;-77
2021/01/02 12:05:07;;;;;;;35.40;16.48;;;2.90;99.90;;;;;;5022704;28;20091;-77
2021/01/02 12:07:35;;;;;;;35.67;15.80;;;2.90;99.90;;;;;;5021479;28;20046;-78
2021/01/02 12:10:00;;;;;;;34.15;16.02;;;2.90;99.90;;;;;;5025666;28;20029;-77
2021/01/02 12:12:26;;;;;;;38.00;16.13;;;2.90;99.90;;;;;;5020533;28;20060;-77
2021/01/02 12:14:51;;;;;;;34.83;14.40;;;2.90;99.90;;;;;;5022658;28;20040;-78
2021/01/02 12:17:17;;;;;;;31.73;15.52;;;2.90;99.90;;;;;;5023540;28;20033;-78
2021/01/02 12:19:43;;;;;;;33.92;16.13;;;2.90;99.90;;;;;;5024917;28;20030;-77
2021/01/02 12:22:09;;;;;;;34.75;15.60;;;2.80;99.90;;;;;;5024802;28;20505;-77
2021/01/02 12:24:35;;;;;;;37.83;16.25;;;2.80;99.90;;;;;;5023647;28;20037;-78
2021/01/02 12:27:07;;;;;;;38.65;16.38;;;2.70;99.90;;;;;;5025126;28;20033;-78
2021/01/02 12:29:34;;;;;;;33.55;15.40;;;2.90;99.90;;;;;;5019879;28;20036;-78
2021/01/02 12:32:05;;;;;;;33.95;16.80;;;3.00;99.90;;;;;;5022482;28;20037;-78
2021/01/02 12:34:32;;;;;;;35.38;15.27;;;2.90;99.90;;;;;;5018349;28;20657;-78
2021/01/02 12:36:59;;;;;;;33.50;15.50;;;3.00;99.90;;;;;;5021754;28;20042;-78
2021/01/02 12:39:27;;;;;;;43.35;17.17;;;3.00;99.90;;;;;;5035726;28;20049;-78
2021/01/02 12:41:53;;;;;;;33.80;15.48;;;3.00;99.90;;;;;;5024236;28;20037;-78
2021/01/02 12:44:23;;;;;;;35.95;16.33;;;3.10;99.90;;;;;;5011781;28;20038;-78
2021/01/02 12:46:55;;;;;;;39.42;16.52;;;3.00;99.90;;;;;;5004989;28;20026;-78
2021/01/02 12:49:24;;;;;;;36.40;16.58;;;3.10;99.90;;;;;;5019595;28;20025;-80
2021/01/02 12:51:54;;;;;;;35.47;16.25;;;3.30;99.90;;;;;;5030464;28;20053;-78
2021/01/02 12:54:20;;;;;;;34.38;15.45;;;3.20;99.90;;;;;;5024778;28;20041;-78